sensor_id;sensor_type;location;lat;lon;timestamp;temperature;humidity
45108;DHT22;30869;51.188;6.556;2022-07-29T04:56:19;21.50;86.50
45108;DHT22;30869;51.188;6.556;2022-07-29T04:59:25;21.50;86.30
45108;DHT22;30869;51.188;6.556;2022-07-29T05:01:56;21.30;86.90
45108;DHT22;30869;51.188;6.556;2022-07-29T05:04:22;20.90;88.00
45108;DHT22;30869;51.188;6.556;2022-07-29T05:07:06;20.90;88.10
45108;DHT22;30869;51.188;6.556;2022-07-29T05:09:40;20.80;88.30
45108;DHT22;30869;51.188;6.556;2022-07-29T05:55:30;21.10;87.50
45108;DHT22;30869;51.188;6.556;2022-07-29T06:01:43;21.00;87.40
45108;DHT22;30869;51.188;6.556;2022-07-29T06:04:09;21.10;87.50
45108;DHT22;30869;51.188;6.556;2022-07-29T06:06:35;21.10;89.20
45108;DHT22;30869;51.188;6.556;2022-07-29T06:09:02;21.20;87.20
45108;DHT22;30869;51.188;6.556;2022-07-29T06:11:40;21.20;87.30
45108;DHT22;30869;51.188;6.556;2022-07-29T06:14:21;21.10;87.70
45108;DHT22;30869;51.188;6.556;2022-07-29T06:17:28;21.10;87.50
45108;DHT22;30869;51.188;6.556;2022-07-29T06:20:24;21.20;87.20
45108;DHT22;30869;51.188;6.556;2022-07-29T06:23:23;21.10;87.10
45108;DHT22;30869;51.188;6.556;2022-07-29T06:26:28;21.20;87.40
45108;DHT22;30869;51.188;6.556;2022-07-29T06:29:25;21.10;87.30
45108;DHT22;30869;51.188;6.556;2022-07-29T06:34:58;21.10;87.50
45108;DHT22;30869;51.188;6.556;2022-07-29T06:37:59;21.10;87.40
45108;DHT22;30869;51.188;6.556;2022-07-29T06:40:31;21.20;87.30
45108;DHT22;30869;51.188;6.556;2022-07-29T06:43:31;21.20;87.00
45108;DHT22;30869;51.188;6.556;2022-07-29T06:46:11;21.20;87.00
45108;DHT22;30869;51.188;6.556;2022-07-29T07:20:19;20.90;87.80
45108;DHT22;30869;51.188;6.556;2022-07-29T07:23:20;21.00;87.50
45108;DHT22;30869;51.188;6.556;2022-07-29T07:26:17;21.00;87.50
45108;DHT22;30869;51.188;6.556;2022-07-29T07:28:43;21.10;87.30
45108;DHT22;30869;51.188;6.556;2022-07-29T07:31:19;20.90;87.30
45108;DHT22;30869;51.188;6.556;2022-07-29T07:33:55;20.80;90.00
45108;DHT22;30869;51.188;6.556;2022-07-29T07:36:26;20.80;89.90
45108;DHT22;30869;51.188;6.556;2022-07-29T07:38:58;20.70;91.50
45108;DHT22;30869;51.188;6.556;2022-07-29T07:41:29;20.50;91.00
45108;DHT22;30869;51.188;6.556;2022-07-29T07:44:21;20.50;91.50
45108;DHT22;30869;51.188;6.556;2022-07-29T07:46:51;20.50;90.50
45108;DHT22;30869;51.188;6.556;2022-07-29T07:49:17;20.50;91.50
45108;DHT22;30869;51.188;6.556;2022-07-29T07:51:49;20.20;93.00
45108;DHT22;30869;51.188;6.556;2022-07-29T07:54:23;20.60;90.20
45108;DHT22;30869;51.188;6.556;2022-07-29T07:56:55;20.70;91.40
45108;DHT22;30869;51.188;6.556;2022-07-29T07:59:21;20.80;91.30
45108;DHT22;30869;51.188;6.556;2022-07-29T08:01:52;20.70;91.30
45108;DHT22;30869;51.188;6.556;2022-07-29T08:04:18;20.70;90.60
45108;DHT22;30869;51.188;6.556;2022-07-29T08:06:43;20.80;90.00
45108;DHT22;30869;51.188;6.556;2022-07-29T08:09:09;20.60;90.60
45108;DHT22;30869;51.188;6.556;2022-07-29T08:11:38;20.40;91.00
45108;DHT22;30869;51.188;6.556;2022-07-29T08:14:10;20.60;90.30
45108;DHT22;30869;51.188;6.556;2022-07-29T08:16:36;20.50;91.00
45108;DHT22;30869;51.188;6.556;2022-07-29T08:22:13;20.90;88.90
45108;DHT22;30869;51.188;6.556;2022-07-29T08:25:10;20.60;89.40
45108;DHT22;30869;51.188;6.556;2022-07-29T08:27:42;20.80;89.00
45108;DHT22;30869;51.188;6.556;2022-07-29T08:31:27;20.80;89.00
45108;DHT22;30869;51.188;6.556;2022-07-29T08:42:32;20.60;89.90
45108;DHT22;30869;51.188;6.556;2022-07-29T08:46:32;20.70;89.90
45108;DHT22;30869;51.188;6.556;2022-07-29T08:57:01;20.80;88.90
45108;DHT22;30869;51.188;6.556;2022-07-29T08:59:57;20.90;88.10
45108;DHT22;30869;51.188;6.556;2022-07-29T09:03:04;21.00;90.40
45108;DHT22;30869;51.188;6.556;2022-07-29T09:13:37;20.80;91.00
45108;DHT22;30869;51.188;6.556;2022-07-29T09:16:55;21.00;89.70
45108;DHT22;30869;51.188;6.556;2022-07-29T09:35:16;21.20;88.20
45108;DHT22;30869;51.188;6.556;2022-07-29T10:05:40;21.70;88.60
45108;DHT22;30869;51.188;6.556;2022-07-29T10:08:25;21.60;88.30
45108;DHT22;30869;51.188;6.556;2022-07-29T10:11:09;21.40;89.80
45108;DHT22;30869;51.188;6.556;2022-07-29T10:13:38;21.30;90.60
45108;DHT22;30869;51.188;6.556;2022-07-29T10:16:04;21.40;89.40
45108;DHT22;30869;51.188;6.556;2022-07-29T10:18:32;21.40;88.70
45108;DHT22;30869;51.188;6.556;2022-07-29T10:21:01;21.50;90.80
45108;DHT22;30869;51.188;6.556;2022-07-29T10:23:28;21.60;86.70
45108;DHT22;30869;51.188;6.556;2022-07-29T10:25:57;21.60;86.90
45108;DHT22;30869;51.188;6.556;2022-07-29T10:28:26;21.70;86.60
45108;DHT22;30869;51.188;6.556;2022-07-29T10:30:58;21.60;90.50
45108;DHT22;30869;51.188;6.556;2022-07-29T10:42:06;21.50;91.70
45108;DHT22;30869;51.188;6.556;2022-07-29T10:44:51;21.50;90.90
45108;DHT22;30869;51.188;6.556;2022-07-29T10:47:26;21.50;91.50
45108;DHT22;30869;51.188;6.556;2022-07-29T10:50:00;21.60;86.90
45108;DHT22;30869;51.188;6.556;2022-07-29T10:52:55;21.70;86.80
45108;DHT22;30869;51.188;6.556;2022-07-29T10:56:27;21.70;89.30
45108;DHT22;30869;51.188;6.556;2022-07-29T11:02:49;21.70;91.60
45108;DHT22;30869;51.188;6.556;2022-07-29T11:05:21;21.70;88.00
45108;DHT22;30869;51.188;6.556;2022-07-29T11:08:18;21.70;87.50
45108;DHT22;30869;51.188;6.556;2022-07-29T11:10:45;21.70;90.20
45108;DHT22;30869;51.188;6.556;2022-07-29T11:13:11;21.70;87.10
45108;DHT22;30869;51.188;6.556;2022-07-29T11:15:56;21.80;86.50
45108;DHT22;30869;51.188;6.556;2022-07-29T11:21:36;21.90;88.70
45108;DHT22;30869;51.188;6.556;2022-07-29T11:24:28;21.80;86.00
45108;DHT22;30869;51.188;6.556;2022-07-29T11:27:20;21.80;89.10
45108;DHT22;30869;51.188;6.556;2022-07-29T11:30:04;21.80;89.30
45108;DHT22;30869;51.188;6.556;2022-07-29T11:43:45;21.50;87.70
45108;DHT22;30869;51.188;6.556;2022-07-29T11:49:49;21.70;89.20
45108;DHT22;30869;51.188;6.556;2022-07-29T11:52:56;21.70;87.50
45108;DHT22;30869;51.188;6.556;2022-07-29T11:59:05;21.90;90.30
45108;DHT22;30869;51.188;6.556;2022-07-29T12:01:52;21.90;90.50
45108;DHT22;30869;51.188;6.556;2022-07-29T12:04:51;21.90;86.40
45108;DHT22;30869;51.188;6.556;2022-07-29T12:07:48;21.90;85.90
45108;DHT22;30869;51.188;6.556;2022-07-29T12:13:39;21.90;90.30
45108;DHT22;30869;51.188;6.556;2022-07-29T12:16:35;21.90;88.50
45108;DHT22;30869;51.188;6.556;2022-07-29T12:23:04;21.90;86.10
45108;DHT22;30869;51.188;6.556;2022-07-29T12:26:06;22.00;90.30
45108;DHT22;30869;51.188;6.556;2022-07-29T12:36:48;22.00;90.70
45108;DHT22;30869;51.188;6.556;2022-07-29T12:39:48;22.20;86.50
45108;DHT22;30869;51.188;6.556;2022-07-29T12:42:17;22.10;85.30
45108;DHT22;30869;51.188;6.556;2022-07-29T12:44:53;22.20;85.10
45108;DHT22;30869;51.188;6.556;2022-07-29T12:47:53;22.20;87.90
45108;DHT22;30869;51.188;6.556;2022-07-29T12:51:10;22.30;85.30
45108;DHT22;30869;51.188;6.556;2022-07-29T13:10:17;22.40;87.30
45108;DHT22;30869;51.188;6.556;2022-07-29T13:13:15;22.50;85.00
45108;DHT22;30869;51.188;6.556;2022-07-29T13:16:06;22.40;87.90
45108;DHT22;30869;51.188;6.556;2022-07-29T13:26:12;22.60;84.30
45108;DHT22;30869;51.188;6.556;2022-07-29T13:36:21;22.70;85.10
45108;DHT22;30869;51.188;6.556;2022-07-29T13:38:47;22.90;86.00
45108;DHT22;30869;51.188;6.556;2022-07-29T13:45:25;22.70;84.00
45108;DHT22;30869;51.188;6.556;2022-07-29T13:47:54;22.80;83.80
45108;DHT22;30869;51.188;6.556;2022-07-29T13:50:43;22.80;85.20
45108;DHT22;30869;51.188;6.556;2022-07-29T13:53:26;22.90;83.60
45108;DHT22;30869;51.188;6.556;2022-07-29T13:57:09;22.90;84.30
45108;DHT22;30869;51.188;6.556;2022-07-29T14:08:37;22.70;84.50
45108;DHT22;30869;51.188;6.556;2022-07-29T14:11:43;22.80;83.30
45108;DHT22;30869;51.188;6.556;2022-07-29T14:14:46;22.90;83.00
45108;DHT22;30869;51.188;6.556;2022-07-29T14:18:26;22.90;83.00
45108;DHT22;30869;51.188;6.556;2022-07-29T14:35:24;23.00;82.20
45108;DHT22;30869;51.188;6.556;2022-07-29T14:37:50;23.00;82.10
45108;DHT22;30869;51.188;6.556;2022-07-29T14:44:07;23.00;82.10
45108;DHT22;30869;51.188;6.556;2022-07-29T14:46:42;23.20;81.20
45108;DHT22;30869;51.188;6.556;2022-07-29T14:49:12;23.10;80.90
45108;DHT22;30869;51.188;6.556;2022-07-29T14:51:49;23.10;80.50
45108;DHT22;30869;51.188;6.556;2022-07-29T14:54:20;23.30;81.20
45108;DHT22;30869;51.188;6.556;2022-07-29T14:56:52;23.20;81.20
45108;DHT22;30869;51.188;6.556;2022-07-29T14:59:30;23.20;79.40
45108;DHT22;30869;51.188;6.556;2022-07-29T15:02:14;23.20;80.30
45108;DHT22;30869;51.188;6.556;2022-07-29T15:27:19;23.20;82.40
45108;DHT22;30869;51.188;6.556;2022-07-29T15:37:54;23.50;83.10
45108;DHT22;30869;51.188;6.556;2022-07-29T15:40:55;23.40;82.40
45108;DHT22;30869;51.188;6.556;2022-07-29T15:51:10;23.20;83.50
45108;DHT22;30869;51.188;6.556;2022-07-29T16:05:33;23.10;83.30
45108;DHT22;30869;51.188;6.556;2022-07-29T16:11:40;23.30;84.00
45108;DHT22;30869;51.188;6.556;2022-07-29T16:14:32;23.20;84.00
45108;DHT22;30869;51.188;6.556;2022-07-29T16:16:58;23.30;84.60
45108;DHT22;30869;51.188;6.556;2022-07-29T16:26:49;23.70;83.90
45108;DHT22;30869;51.188;6.556;2022-07-29T16:29:23;23.40;84.50
45108;DHT22;30869;51.188;6.556;2022-07-29T16:31:52;23.30;84.20
45108;DHT22;30869;51.188;6.556;2022-07-29T16:34:26;23.60;84.30
45108;DHT22;30869;51.188;6.556;2022-07-29T16:40:32;23.50;82.80
45108;DHT22;30869;51.188;6.556;2022-07-29T16:43:30;23.70;82.80
45108;DHT22;30869;51.188;6.556;2022-07-29T16:46:46;23.60;82.90
45108;DHT22;30869;51.188;6.556;2022-07-29T16:50:07;23.70;82.40
45108;DHT22;30869;51.188;6.556;2022-07-29T16:52:54;23.60;82.30
45108;DHT22;30869;51.188;6.556;2022-07-29T16:55:56;23.60;82.70
45108;DHT22;30869;51.188;6.556;2022-07-29T17:02:18;23.70;82.10
45108;DHT22;30869;51.188;6.556;2022-07-29T17:05:14;23.70;82.40
45108;DHT22;30869;51.188;6.556;2022-07-29T17:08:12;23.50;82.20
45108;DHT22;30869;51.188;6.556;2022-07-29T17:11:03;23.60;82.40
45108;DHT22;30869;51.188;6.556;2022-07-29T17:13:37;23.60;82.30
45108;DHT22;30869;51.188;6.556;2022-07-29T17:16:36;23.60;82.70
45108;DHT22;30869;51.188;6.556;2022-07-29T17:22:22;23.50;82.90
45108;DHT22;30869;51.188;6.556;2022-07-29T17:24:47;23.50;82.80
45108;DHT22;30869;51.188;6.556;2022-07-29T17:27:26;23.50;83.00
45108;DHT22;30869;51.188;6.556;2022-07-29T17:29:55;23.60;82.90
45108;DHT22;30869;51.188;6.556;2022-07-29T17:33:05;23.50;82.90
45108;DHT22;30869;51.188;6.556;2022-07-29T17:36:15;23.50;83.00
45108;DHT22;30869;51.188;6.556;2022-07-29T17:38:55;23.50;82.70
45108;DHT22;30869;51.188;6.556;2022-07-29T17:41:22;23.40;82.90
45108;DHT22;30869;51.188;6.556;2022-07-29T17:43:48;23.50;83.10
45108;DHT22;30869;51.188;6.556;2022-07-29T17:46:15;23.40;83.20
45108;DHT22;30869;51.188;6.556;2022-07-29T17:48:41;23.40;83.50
45108;DHT22;30869;51.188;6.556;2022-07-29T17:51:07;23.40;83.60
45108;DHT22;30869;51.188;6.556;2022-07-29T17:53:36;23.40;83.70
45108;DHT22;30869;51.188;6.556;2022-07-29T17:56:13;23.30;83.80
45108;DHT22;30869;51.188;6.556;2022-07-29T17:58:41;23.40;83.90
45108;DHT22;30869;51.188;6.556;2022-07-29T18:01:27;23.40;83.50
45108;DHT22;30869;51.188;6.556;2022-07-29T18:04:16;23.30;83.80
45108;DHT22;30869;51.188;6.556;2022-07-29T18:06:50;23.40;84.20
45108;DHT22;30869;51.188;6.556;2022-07-29T18:09:21;23.30;84.30
45108;DHT22;30869;51.188;6.556;2022-07-29T18:12:10;23.20;84.40
45108;DHT22;30869;51.188;6.556;2022-07-29T18:14:38;23.20;84.60
45108;DHT22;30869;51.188;6.556;2022-07-29T18:17:18;23.10;84.70
45108;DHT22;30869;51.188;6.556;2022-07-29T18:20:03;23.10;85.00
45108;DHT22;30869;51.188;6.556;2022-07-29T18:22:35;23.10;85.00
45108;DHT22;30869;51.188;6.556;2022-07-29T18:25:32;23.10;85.10
45108;DHT22;30869;51.188;6.556;2022-07-29T18:28:10;23.10;84.90
45108;DHT22;30869;51.188;6.556;2022-07-29T18:30:41;23.10;84.80
45108;DHT22;30869;51.188;6.556;2022-07-29T18:33:15;23.10;85.00
45108;DHT22;30869;51.188;6.556;2022-07-29T18:35:45;23.20;85.10
45108;DHT22;30869;51.188;6.556;2022-07-29T18:38:11;23.30;85.10
45108;DHT22;30869;51.188;6.556;2022-07-29T18:40:39;23.20;84.90
45108;DHT22;30869;51.188;6.556;2022-07-29T18:43:23;23.20;85.30
45108;DHT22;30869;51.188;6.556;2022-07-29T18:45:56;23.10;85.10
45108;DHT22;30869;51.188;6.556;2022-07-29T18:48:35;23.10;85.50
45108;DHT22;30869;51.188;6.556;2022-07-29T18:51:21;23.10;85.20
45108;DHT22;30869;51.188;6.556;2022-07-29T18:53:46;23.10;85.50
45108;DHT22;30869;51.188;6.556;2022-07-29T18:56:15;23.20;85.50
45108;DHT22;30869;51.188;6.556;2022-07-29T18:58:40;23.20;85.50
45108;DHT22;30869;51.188;6.556;2022-07-29T19:01:09;23.00;85.20
45108;DHT22;30869;51.188;6.556;2022-07-29T19:03:39;23.20;85.10
45108;DHT22;30869;51.188;6.556;2022-07-29T19:06:13;23.10;85.20
45108;DHT22;30869;51.188;6.556;2022-07-29T19:08:44;23.10;85.70
45108;DHT22;30869;51.188;6.556;2022-07-29T19:11:13;23.10;85.90
45108;DHT22;30869;51.188;6.556;2022-07-29T19:13:41;23.10;85.90
45108;DHT22;30869;51.188;6.556;2022-07-29T19:16:07;23.10;86.00
45108;DHT22;30869;51.188;6.556;2022-07-29T19:18:37;22.80;85.40
45108;DHT22;30869;51.188;6.556;2022-07-29T19:21:05;22.90;85.50
45108;DHT22;30869;51.188;6.556;2022-07-29T19:23:34;22.90;86.20
45108;DHT22;30869;51.188;6.556;2022-07-29T19:26:01;22.90;86.50
45108;DHT22;30869;51.188;6.556;2022-07-29T19:28:29;23.00;86.50
45108;DHT22;30869;51.188;6.556;2022-07-29T19:30:57;22.90;86.20
45108;DHT22;30869;51.188;6.556;2022-07-29T19:33:27;23.00;86.50
45108;DHT22;30869;51.188;6.556;2022-07-29T19:35:58;23.00;86.50
45108;DHT22;30869;51.188;6.556;2022-07-29T19:38:32;22.80;86.40
45108;DHT22;30869;51.188;6.556;2022-07-29T19:41:01;23.00;86.80
45108;DHT22;30869;51.188;6.556;2022-07-29T19:43:27;23.00;86.80
45108;DHT22;30869;51.188;6.556;2022-07-29T19:45:55;23.00;86.70
45108;DHT22;30869;51.188;6.556;2022-07-29T19:48:21;23.00;86.70
45108;DHT22;30869;51.188;6.556;2022-07-29T19:50:50;23.00;86.80
45108;DHT22;30869;51.188;6.556;2022-07-29T19:53:15;23.00;86.60
45108;DHT22;30869;51.188;6.556;2022-07-29T19:55:41;23.00;86.40
45108;DHT22;30869;51.188;6.556;2022-07-29T19:58:07;23.00;86.80
45108;DHT22;30869;51.188;6.556;2022-07-29T20:00:33;23.00;86.80
45108;DHT22;30869;51.188;6.556;2022-07-29T20:03:01;23.00;86.80
45108;DHT22;30869;51.188;6.556;2022-07-29T20:05:29;23.00;86.80
45108;DHT22;30869;51.188;6.556;2022-07-29T20:07:58;23.00;86.80
45108;DHT22;30869;51.188;6.556;2022-07-29T20:10:24;23.00;86.80
45108;DHT22;30869;51.188;6.556;2022-07-29T20:12:49;23.00;86.70
45108;DHT22;30869;51.188;6.556;2022-07-29T20:15:15;23.00;86.70
45108;DHT22;30869;51.188;6.556;2022-07-29T20:17:41;23.00;87.00
45108;DHT22;30869;51.188;6.556;2022-07-29T20:20:08;23.00;86.90
45108;DHT22;30869;51.188;6.556;2022-07-29T20:22:34;22.90;86.80
45108;DHT22;30869;51.188;6.556;2022-07-29T20:25:00;22.90;86.60
45108;DHT22;30869;51.188;6.556;2022-07-29T20:27:26;22.90;87.50
45108;DHT22;30869;51.188;6.556;2022-07-29T20:29:52;22.90;87.50
45108;DHT22;30869;51.188;6.556;2022-07-29T20:32:18;23.00;87.50
45108;DHT22;30869;51.188;6.556;2022-07-29T20:34:44;23.00;87.30
45108;DHT22;30869;51.188;6.556;2022-07-29T20:37:10;23.00;87.40
45108;DHT22;30869;51.188;6.556;2022-07-29T20:39:37;23.00;87.40
45108;DHT22;30869;51.188;6.556;2022-07-29T20:42:03;23.00;87.40
45108;DHT22;30869;51.188;6.556;2022-07-29T20:44:33;23.00;87.50
45108;DHT22;30869;51.188;6.556;2022-07-29T20:46:59;23.00;87.50
45108;DHT22;30869;51.188;6.556;2022-07-29T20:49:25;23.00;87.30
45108;DHT22;30869;51.188;6.556;2022-07-29T20:51:50;23.00;87.40
45108;DHT22;30869;51.188;6.556;2022-07-29T20:54:16;23.00;87.50
45108;DHT22;30869;51.188;6.556;2022-07-29T20:56:42;23.00;87.50
45108;DHT22;30869;51.188;6.556;2022-07-29T20:59:16;23.00;87.60
45108;DHT22;30869;51.188;6.556;2022-07-29T21:01:42;23.00;87.60
45108;DHT22;30869;51.188;6.556;2022-07-29T21:04:08;22.90;87.70
45108;DHT22;30869;51.188;6.556;2022-07-29T21:06:33;23.00;87.80
45108;DHT22;30869;51.188;6.556;2022-07-29T21:08:59;23.00;87.80
45108;DHT22;30869;51.188;6.556;2022-07-29T21:11:26;23.00;88.10
45108;DHT22;30869;51.188;6.556;2022-07-29T21:13:52;22.90;88.10
45108;DHT22;30869;51.188;6.556;2022-07-29T21:16:18;23.00;88.10
45108;DHT22;30869;51.188;6.556;2022-07-29T21:18:47;22.90;88.20
45108;DHT22;30869;51.188;6.556;2022-07-29T21:21:15;22.90;88.20
45108;DHT22;30869;51.188;6.556;2022-07-29T21:23:41;23.00;88.30
45108;DHT22;30869;51.188;6.556;2022-07-29T21:26:09;23.00;88.10
45108;DHT22;30869;51.188;6.556;2022-07-29T21:28:35;23.00;88.00
45108;DHT22;30869;51.188;6.556;2022-07-29T21:31:08;23.00;88.10
45108;DHT22;30869;51.188;6.556;2022-07-29T21:33:36;22.90;88.20
45108;DHT22;30869;51.188;6.556;2022-07-29T21:36:04;22.90;88.30
45108;DHT22;30869;51.188;6.556;2022-07-29T21:38:31;22.90;88.40
45108;DHT22;30869;51.188;6.556;2022-07-29T21:40:56;22.90;88.90
45108;DHT22;30869;51.188;6.556;2022-07-29T21:43:23;22.90;88.60
45108;DHT22;30869;51.188;6.556;2022-07-29T21:45:51;22.90;88.70
45108;DHT22;30869;51.188;6.556;2022-07-29T21:48:20;22.90;88.70
45108;DHT22;30869;51.188;6.556;2022-07-29T21:50:47;22.90;88.70
45108;DHT22;30869;51.188;6.556;2022-07-29T21:53:12;22.90;88.80
45108;DHT22;30869;51.188;6.556;2022-07-29T21:55:38;22.90;88.90
45108;DHT22;30869;51.188;6.556;2022-07-29T21:58:04;22.80;89.50
45108;DHT22;30869;51.188;6.556;2022-07-29T22:00:31;22.60;88.40
45108;DHT22;30869;51.188;6.556;2022-07-29T22:02:59;22.70;88.90
45108;DHT22;30869;51.188;6.556;2022-07-29T22:05:26;22.80;89.00
45108;DHT22;30869;51.188;6.556;2022-07-29T22:07:52;22.80;89.10
45108;DHT22;30869;51.188;6.556;2022-07-29T22:10:17;22.80;89.10
45108;DHT22;30869;51.188;6.556;2022-07-29T22:12:52;22.70;89.10
45108;DHT22;30869;51.188;6.556;2022-07-29T22:15:18;22.70;89.20
45108;DHT22;30869;51.188;6.556;2022-07-29T22:17:44;22.80;89.30
45108;DHT22;30869;51.188;6.556;2022-07-29T22:20:10;22.70;89.20
45108;DHT22;30869;51.188;6.556;2022-07-29T22:22:36;22.80;89.20
45108;DHT22;30869;51.188;6.556;2022-07-29T22:25:02;22.70;88.60
45108;DHT22;30869;51.188;6.556;2022-07-29T22:27:28;22.70;88.90
45108;DHT22;30869;51.188;6.556;2022-07-29T22:29:53;22.70;89.30
45108;DHT22;30869;51.188;6.556;2022-07-29T22:32:19;22.70;89.40
45108;DHT22;30869;51.188;6.556;2022-07-29T22:34:45;22.70;89.30
45108;DHT22;30869;51.188;6.556;2022-07-29T22:37:11;22.80;89.30
45108;DHT22;30869;51.188;6.556;2022-07-29T22:39:37;22.80;89.20
45108;DHT22;30869;51.188;6.556;2022-07-29T22:42:03;22.80;89.20
45108;DHT22;30869;51.188;6.556;2022-07-29T22:44:29;22.80;89.20
45108;DHT22;30869;51.188;6.556;2022-07-29T22:46:55;22.80;89.20
45108;DHT22;30869;51.188;6.556;2022-07-29T22:49:20;22.80;89.10
45108;DHT22;30869;51.188;6.556;2022-07-29T22:51:46;22.80;89.00
45108;DHT22;30869;51.188;6.556;2022-07-29T22:54:12;22.80;89.00
45108;DHT22;30869;51.188;6.556;2022-07-29T22:56:38;22.80;89.20
45108;DHT22;30869;51.188;6.556;2022-07-29T22:59:03;22.80;89.20
45108;DHT22;30869;51.188;6.556;2022-07-29T23:01:29;22.70;89.20
45108;DHT22;30869;51.188;6.556;2022-07-29T23:03:55;22.80;89.30
45108;DHT22;30869;51.188;6.556;2022-07-29T23:06:20;22.80;89.20
45108;DHT22;30869;51.188;6.556;2022-07-29T23:08:46;22.80;89.10
45108;DHT22;30869;51.188;6.556;2022-07-29T23:11:12;22.80;89.00
45108;DHT22;30869;51.188;6.556;2022-07-29T23:13:37;22.80;89.00
45108;DHT22;30869;51.188;6.556;2022-07-29T23:16:03;22.80;89.20
45108;DHT22;30869;51.188;6.556;2022-07-29T23:18:29;22.80;89.20
45108;DHT22;30869;51.188;6.556;2022-07-29T23:20:55;22.70;89.20
45108;DHT22;30869;51.188;6.556;2022-07-29T23:23:21;22.70;89.20
45108;DHT22;30869;51.188;6.556;2022-07-29T23:25:46;22.80;89.30
45108;DHT22;30869;51.188;6.556;2022-07-29T23:28:12;22.80;89.20
45108;DHT22;30869;51.188;6.556;2022-07-29T23:30:39;22.80;89.20
45108;DHT22;30869;51.188;6.556;2022-07-29T23:33:05;22.70;89.20
45108;DHT22;30869;51.188;6.556;2022-07-29T23:35:31;22.90;89.30
45108;DHT22;30869;51.188;6.556;2022-07-29T23:37:57;22.70;89.20
45108;DHT22;30869;51.188;6.556;2022-07-29T23:40:22;22.70;89.30
45108;DHT22;30869;51.188;6.556;2022-07-29T23:42:48;22.70;89.30
45108;DHT22;30869;51.188;6.556;2022-07-29T23:45:14;22.70;89.30
45108;DHT22;30869;51.188;6.556;2022-07-29T23:47:40;22.70;89.30
45108;DHT22;30869;51.188;6.556;2022-07-29T23:50:07;22.70;89.40
45108;DHT22;30869;51.188;6.556;2022-07-29T23:52:32;22.60;89.40
45108;DHT22;30869;51.188;6.556;2022-07-29T23:54:58;22.70;89.50
45108;DHT22;30869;51.188;6.556;2022-07-29T23:57:24;22.60;89.50
45108;DHT22;30869;51.188;6.556;2022-07-29T23:59:51;22.60;89.50
